Time;durP1;ratioP1;P1;durP2;ratioP2;P2;SDS_P1;SDS_P2;PMS_P1;PMS_P2;Temp;Humidity;BMP_temperature;BMP_pressure;BME280_temperature;BME280_humidity;BME280_pressure;Samples;Min_cycle;Max_cycle;Signal;HPM_P1;HPM_P2
2023/06/21 00:01:40;;;;;;;7.00;2.97;;;8.90;69.30;;;;;;6302607;22;20084;-66
2023/06/21 00:04:08;;;;;;;7.20;3.10;;;8.90;69.30;;;;;;6274378;22;20430;-67
2023/06/21 00:06:37;;;;;;;6.80;2.90;;;9.00;68.90;;;;;;6301343;22;20382;-68
2023/06/21 00:09:05;;;;;;;8.90;3.00;;;9.00;69.00;;;;;;6249639;22;20448;-68
2023/06/21 00:11:33;;;;;;;7.32;3.30;;;9.00;68.90;;;;;;6303107;22;20045;-68
2023/06/21 00:14:01;;;;;;;5.22;3.30;;;9.10;69.10;;;;;;6276915;22;20073;-68
2023/06/21 00:16:29;;;;;;;12.02;3.65;;;9.10;68.90;;;;;;6303736;22;20004;-69
2023/06/21 00:18:57;;;;;;;8.30;3.58;;;9.10;69.00;;;;;;6302757;22;20063;-69
2023/06/21 00:21:24;;;;;;;8.45;3.78;;;9.20;69.00;;;;;;6276230;22;20007;-68
2023/06/21 00:23:52;;;;;;;9.45;3.00;;;9.20;68.90;;;;;;6301456;22;20058;-68
2023/06/21 00:26:19;;;;;;;10.32;3.38;;;9.20;69.00;;;;;;6275013;22;20005;-68
2023/06/21 00:28:47;;;;;;;11.82;3.50;;;9.20;69.00;;;;;;6276824;22;20034;-68
2023/06/21 00:31:14;;;;;;;9.48;3.10;;;9.30;68.50;;;;;;6304264;22;20432;-69
2023/06/21 00:33:42;;;;;;;11.45;3.45;;;9.30;68.50;;;;;;6302876;22;20117;-68
2023/06/21 00:36:09;;;;;;;7.25;3.10;;;9.40;68.50;;;;;;6276106;22;20023;-68
2023/06/21 00:38:37;;;;;;;6.35;3.10;;;9.40;68.40;;;;;;6303806;22;20030;-68
2023/06/21 00:41:05;;;;;;;5.57;3.22;;;9.50;68.30;;;;;;6276731;22;20003;-68
2023/06/21 00:43:32;;;;;;;6.82;3.25;;;9.50;68.20;;;;;;6276957;22;20003;-68
2023/06/21 00:46:00;;;;;;;6.15;3.08;;;9.50;68.00;;;;;;6251216;22;20347;-68
2023/06/21 00:48:28;;;;;;;6.43;3.17;;;9.60;67.90;;;;;;6303585;22;20003;-68
2023/06/21 00:50:56;;;;;;;8.30;2.95;;;9.70;67.90;;;;;;6276583;22;20003;-68
2023/06/21 00:53:28;;;;;;;6.18;3.00;;;9.70;67.90;;;;;;6251162;22;20014;-68
2023/06/21 00:56:02;;;;;;;10.90;3.20;;;9.70;67.70;;;;;;6276207;22;20003;-68
2023/06/21 00:58:31;;;;;;;6.38;2.72;;;9.70;67.50;;;;;;6276273;22;20063;-68
2023/06/21 01:00:59;;;;;;;5.75;3.03;;;9.80;67.50;;;;;;6303078;22;20342;-68
2023/06/21 01:03:27;;;;;;;6.28;2.90;;;9.80;67.30;;;;;;6303435;22;20038;-68
2023/06/21 01:06:10;;;;;;;10.45;3.13;;;9.90;67.20;;;;;;6251042;22;20004;-69
2023/06/21 01:08:52;;;;;;;6.00;2.90;;;9.90;67.00;;;;;;6275010;22;20337;-69
2023/06/21 01:11:27;;;;;;;8.13;2.83;;;10.00;66.90;;;;;;6276115;22;20086;-68
2023/06/21 01:14:20;;;;;;;6.05;3.05;;;10.10;66.60;;;;;;6251530;22;20015;-69
2023/06/21 01:16:49;;;;;;;7.70;3.03;;;10.10;66.40;;;;;;6302051;22;20345;-68
2023/06/21 01:19:51;;;;;;;6.32;2.60;;;10.20;66.40;;;;;;6302927;22;20046;-70
2023/06/21 01:22:24;;;;;;;7.18;2.70;;;10.20;66.50;;;;;;6295585;22;20018;-69
2023/06/21 01:25:15;;;;;;;4.30;2.67;;;10.20;66.50;;;;;;6300895;22;19999;-69
2023/06/21 01:27:52;;;;;;;8.88;2.70;;;10.30;66.30;;;;;;6303785;22;20007;-69
2023/06/21 01:30:20;;;;;;;7.22;2.95;;;10.40;66.40;;;;;;6276761;22;19999;-69
2023/06/21 01:32:48;;;;;;;7.97;2.75;;;10.40;66.30;;;;;;6248919;22;20058;-69
2023/06/21 01:35:16;;;;;;;6.72;2.70;;;10.40;66.20;;;;;;6275674;22;20468;-69
2023/06/21 01:37:43;;;;;;;7.18;2.83;;;10.50;66.20;;;;;;6275848;22;20003;-69
2023/06/21 01:40:11;;;;;;;5.63;2.40;;;10.70;66.20;;;;;;6302772;22;20007;-69
2023/06/21 01:42:39;;;;;;;8.88;2.50;;;10.70;66.10;;;;;;6302620;22;19995;-68
2023/06/21 01:45:07;;;;;;;5.18;2.47;;;10.70;65.70;;;;;;6249492;22;20025;-67
2023/06/21 01:47:37;;;;;;;8.60;2.78;;;10.70;65.70;;;;;;6302104;22;20381;-67
2023/06/21 01:50:08;;;;;;;5.63;2.35;;;10.80;65.40;;;;;;6303683;22;20078;-67
2023/06/21 01:52:35;;;;;;;5.68;2.25;;;10.80;65.10;;;;;;6276294;22;20355;-68
2023/06/21 01:55:05;;;;;;;5.05;2.10;;;10.90;64.90;;;;;;6302784;22;20534;-71
2023/06/21 01:57:35;;;;;;;7.80;2.10;;;11.00;64.90;;;;;;6275821;22;20042;-71
2023/06/21 02:00:17;;;;;;;7.10;2.05;;;11.00;64.70;;;;;;6251562;22;20019;-71
2023/06/21 02:02:56;;;;;;;5.25;2.00;;;11.10;64.40;;;;;;6256001;22;20350;-67
2023/06/21 02:05:23;;;;;;;6.00;2.00;;;11.10;64.20;;;;;;6274630;22;20003;-67
2023/06/21 02:07:51;;;;;;;5.43;2.10;;;11.20;63.90;;;;;;6276206;22;20350;-67
2023/06/21 02:10:19;;;;;;;8.38;2.40;;;11.20;63.70;;;;;;6273912;22;20185;-68
2023/06/21 02:12:52;;;;;;;6.82;1.92;;;11.30;63.70;;;;;;6275492;22;20529;-68
2023/06/21 02:15:19;;;;;;;7.20;2.10;;;11.30;63.30;;;;;;6250863;22;20007;-68
2023/06/21 02:17:51;;;;;;;5.45;1.95;;;11.40;63.10;;;;;;6249526;22;20409;-68
2023/06/21 02:20:19;;;;;;;3.90;1.50;;;11.40;62.70;;;;;;6276075;22;19999;-67
2023/06/21 02:22:47;;;;;;;2.67;1.45;;;11.50;62.40;;;;;;6275924;22;20315;-67
2023/06/21 02:25:15;;;;;;;2.38;1.27;;;11.60;62.20;;;;;;6247481;22;20003;-67
2023/06/21 02:27:42;;;;;;;5.80;2.08;;;11.60;61.70;;;;;;6273433;22;20027;-67
2023/06/21 02:30:10;;;;;;;2.65;1.25;;;11.70;61.70;;;;;;6273261;22;20010;-67
2023/06/21 02:32:38;;;;;;;4.10;1.45;;;11.70;61.30;;;;;;6302541;22;20031;-67
2023/06/21 02:35:06;;;;;;;4.05;1.40;;;11.70;60.90;;;;;;6249513;22;20447;-67
2023/06/21 02:37:33;;;;;;;2.53;1.30;;;11.70;60.70;;;;;;6276012;22;20067;-67
2023/06/21 02:40:10;;;;;;;3.72;1.10;;;11.70;60.50;;;;;;6301378;22;20010;-66
2023/06/21 02:42:37;;;;;;;3.90;1.20;;;11.80;60.10;;;;;;6277596;22;20064;-65
2023/06/21 02:45:05;;;;;;;3.75;1.20;;;11.80;59.70;;;;;;6302708;22;20007;-66
2023/06/21 02:47:34;;;;;;;3.33;1.20;;;11.80;59.50;;;;;;6302085;22;20035;-66
2023/06/21 02:50:02;;;;;;;3.50;1.38;;;11.90;59.10;;;;;;6302127;22;19999;-66
2023/06/21 02:52:29;;;;;;;1.85;1.10;;;11.90;58.70;;;;;;6303160;22;20346;-66
2023/06/21 02:54:57;;;;;;;4.07;1.17;;;12.00;58.30;;;;;;6275545;22;20023;-66
2023/06/21 02:57:25;;;;;;;2.78;1.25;;;12.00;58.00;;;;;;6250465;22;20310;-66
2023/06/21 02:59:52;;;;;;;3.65;1.20;;;12.10;57.60;;;;;;6275318;22;20015;-67
2023/06/21 03:02:21;;;;;;;3.10;0.90;;;12.10;56.90;;;;;;6302751;22;20074;-66
2023/06/21 03:04:50;;;;;;;4.30;1.08;;;12.20;56.80;;;;;;6276041;22;19995;-66
2023/06/21 03:07:17;;;;;;;8.68;1.63;;;12.20;56.60;;;;;;6275936;22;20031;-67
2023/06/21 03:09:44;;;;;;;1.30;0.80;;;12.20;56.40;;;;;;6274942;22;20082;-67
2023/06/21 03:12:12;;;;;;;2.20;1.08;;;12.20;56.20;;;;;;6302251;22;20451;-67
2023/06/21 03:14:41;;;;;;;3.35;1.13;;;12.30;56.30;;;;;;6302343;22;20010;-66
2023/06/21 03:17:11;;;;;;;5.28;1.30;;;12.20;56.30;;;;;;6302942;22;19999;-67
2023/06/21 03:19:39;;;;;;;4.65;1.30;;;12.30;56.40;;;;;;6275385;22;20018;-67
2023/06/21 03:22:06;;;;;;;3.42;1.10;;;12.30;56.30;;;;;;6303011;22;19999;-67
2023/06/21 03:24:34;;;;;;;3.92;1.00;;;12.30;56.10;;;;;;6272713;22;20082;-66
2023/06/21 03:27:02;;;;;;;1.42;1.08;;;12.30;55.90;;;;;;6302753;22;20011;-69
2023/06/21 03:29:30;;;;;;;1.90;1.17;;;12.30;55.70;;;;;;6275654;22;20330;-69
2023/06/21 03:31:57;;;;;;;5.15;1.00;;;12.40;55.40;;;;;;6275702;22;20007;-69
2023/06/21 03:34:25;;;;;;;3.55;1.20;;;12.40;55.30;;;;;;6301967;22;20094;-68
2023/06/21 03:36:55;;;;;;;5.78;1.10;;;12.40;55.00;;;;;;6302498;22;20078;-68
2023/06/21 03:39:23;;;;;;;4.47;1.13;;;12.40;54.50;;;;;;6302168;22;20053;-68
2023/06/21 03:41:50;;;;;;;2.30;0.95;;;12.40;54.30;;;;;;6302619;22;20027;-68
2023/06/21 03:44:17;;;;;;;2.92;1.10;;;12.50;54.20;;;;;;6275126;22;20042;-69
2023/06/21 03:46:45;;;;;;;4.03;1.00;;;12.50;53.90;;;;;;6302640;22;20003;-68
2023/06/21 03:49:12;;;;;;;3.60;1.00;;;12.50;53.30;;;;;;6252070;22;20437;-68
2023/06/21 03:51:40;;;;;;;2.60;1.00;;;12.50;53.10;;;;;;6304903;22;20069;-69
2023/06/21 03:54:07;;;;;;;3.67;1.00;;;12.50;53.30;;;;;;6305065;22;20042;-68
2023/06/21 03:56:34;;;;;;;1.75;0.82;;;12.50;53.60;;;;;;6277605;22;20007;-68
2023/06/21 03:59:02;;;;;;;2.03;0.90;;;12.50;53.00;;;;;;6303634;22;20023;-68
2023/06/21 04:01:29;;;;;;;6.55;1.48;;;12.60;53.00;;;;;;6304016;22;20003;-69
2023/06/21 04:03:57;;;;;;;2.60;1.13;;;12.60;53.10;;;;;;6304235;22;20052;-68
2023/06/21 04:06:25;;;;;;;2.80;0.88;;;12.60;52.70;;;;;;6277789;22;20014;-69
2023/06/21 04:08:53;;;;;;;3.67;0.85;;;12.60;52.50;;;;;;6304172;22;20060;-69
2023/06/21 04:11:21;;;;;;;2.33;0.77;;;12.60;52.60;;;;;;6277383;22;20065;-69
2023/06/21 04:13:48;;;;;;;1.23;1.02;;;12.70;52.60;;;;;;6276880;22;20037;-68
2023/06/21 04:16:15;;;;;;;6.85;1.17;;;12.70;52.50;;;;;;6303904;22;20453;-69
2023/06/21 04:18:43;;;;;;;2.28;1.00;;;12.70;53.20;;;;;;6303816;22;20008;-69
2023/06/21 04:21:10;;;;;;;4.30;1.20;;;12.70;53.60;;;;;;6303999;22;20368;-68
2023/06/21 04:23:38;;;;;;;1.90;1.00;;;12.70;53.50;;;;;;6299678;22;20011;-68
2023/06/21 04:26:06;;;;;;;2.95;1.00;;;12.70;53.00;;;;;;6304344;22;20034;-67
2023/06/21 04:28:34;;;;;;;8.27;1.10;;;12.80;53.00;;;;;;6304255;22;20090;-69
2023/06/21 04:31:02;;;;;;;4.13;1.30;;;12.80;52.90;;;;;;6276427;22;20003;-67
2023/06/21 04:33:30;;;;;;;3.00;1.20;;;12.70;52.90;;;;;;6304153;22;20014;-68
2023/06/21 04:35:57;;;;;;;3.33;1.02;;;12.80;52.90;;;;;;6277368;22;20133;-67
2023/06/21 04:38:24;;;;;;;2.83;0.82;;;12.80;52.80;;;;;;6303669;22;20031;-67
2023/06/21 04:40:55;;;;;;;2.00;0.90;;;12.80;52.40;;;;;;6303650;22;20003;-67
2023/06/21 04:43:24;;;;;;;2.45;1.15;;;12.80;52.30;;;;;;6303973;22;20091;-67
2023/06/21 04:45:52;;;;;;;4.43;1.00;;;12.80;52.00;;;;;;6275555;22;20042;-68
2023/06/21 04:48:24;;;;;;;3.47;1.00;;;12.80;52.00;;;;;;6276145;22;20422;-68
2023/06/21 04:50:51;;;;;;;5.88;0.85;;;12.80;51.90;;;;;;6303777;22;20003;-67
2023/06/21 04:53:29;;;;;;;5.97;1.10;;;12.80;51.60;;;;;;6276812;22;20015;-67
2023/06/21 04:55:57;;;;;;;3.35;1.02;;;12.80;51.90;;;;;;6303421;22;20422;-68
2023/06/21 04:58:28;;;;;;;3.15;0.95;;;12.80;52.20;;;;;;6275501;22;20048;-68
2023/06/21 05:00:55;;;;;;;3.13;0.95;;;12.80;52.00;;;;;;6304026;22;20011;-68
2023/06/21 05:03:23;;;;;;;3.65;1.00;;;12.80;51.90;;;;;;6303788;22;20007;-68
2023/06/21 05:05:50;;;;;;;2.63;0.70;;;12.90;51.70;;;;;;6303858;22;19999;-68
2023/06/21 05:08:18;;;;;;;2.80;1.00;;;12.90;51.40;;;;;;6302984;22;20082;-68
2023/06/21 05:10:45;;;;;;;2.53;1.05;;;12.90;51.40;;;;;;6303575;22;20045;-68
2023/06/21 05:13:12;;;;;;;1.63;0.88;;;12.90;51.60;;;;;;6301829;22;20086;-68
2023/06/21 05:15:40;;;;;;;2.55;1.02;;;12.90;51.50;;;;;;6303516;22;20042;-67
2023/06/21 05:18:08;;;;;;;2.65;1.10;;;12.90;51.70;;;;;;6276438;22;20035;-68
2023/06/21 05:20:35;;;;;;;2.17;0.77;;;12.90;52.00;;;;;;6276398;22;20003;-67
2023/06/21 05:23:02;;;;;;;2.25;1.13;;;12.90;51.80;;;;;;6303335;22;19999;-67
2023/06/21 05:25:30;;;;;;;3.80;0.95;;;12.90;52.20;;;;;;6273837;22;20501;-67
2023/06/21 05:27:57;;;;;;;5.30;1.10;;;12.90;52.20;;;;;;6276775;22;20483;-67
2023/06/21 05:30:25;;;;;;;3.80;1.00;;;12.90;52.00;;;;;;6275601;22;20113;-67
2023/06/21 05:32:52;;;;;;;3.00;1.10;;;12.80;52.00;;;;;;6275798;22;20326;-68
2023/06/21 05:35:20;;;;;;;4.50;1.23;;;12.90;52.10;;;;;;6275772;22;20007;-66
2023/06/21 05:37:47;;;;;;;1.65;0.88;;;12.90;52.20;;;;;;6276552;22;20060;-66
2023/06/21 05:40:15;;;;;;;3.00;1.35;;;12.90;52.30;;;;;;6274337;22;20070;-66
2023/06/21 05:42:42;;;;;;;2.10;1.10;;;12.90;52.40;;;;;;6275948;22;19999;-66
2023/06/21 05:45:10;;;;;;;3.78;1.17;;;12.90;52.10;;;;;;6303257;22;20415;-66
2023/06/21 05:47:38;;;;;;;1.73;0.93;;;12.90;52.30;;;;;;6276327;22;20492;-67
2023/06/21 05:50:05;;;;;;;1.67;0.95;;;12.90;52.30;;;;;;6225322;22;20018;-67
2023/06/21 05:52:33;;;;;;;4.43;1.08;;;12.90;52.40;;;;;;6303237;22;19999;-67
2023/06/21 05:55:00;;;;;;;4.68;1.65;;;12.90;52.70;;;;;;6303165;22;20026;-66
2023/06/21 05:57:28;;;;;;;5.05;1.30;;;12.90;52.90;;;;;;6302773;22;20334;-67
2023/06/21 05:59:56;;;;;;;4.70;1.27;;;12.90;52.90;;;;;;6300915;22;20392;-66
2023/06/21 06:02:23;;;;;;;2.85;1.20;;;12.90;52.80;;;;;;6275988;22;20478;-67
2023/06/21 06:04:50;;;;;;;1.92;1.00;;;12.80;52.60;;;;;;6250345;22;20421;-67
2023/06/21 06:07:19;;;;;;;2.58;0.90;;;12.80;52.50;;;;;;6250559;22;20311;-67
2023/06/21 06:09:46;;;;;;;3.00;1.02;;;12.80;52.70;;;;;;6275651;22;20007;-68
2023/06/21 06:12:14;;;;;;;2.05;0.95;;;12.80;52.70;;;;;;6302882;22;20341;-67
2023/06/21 06:14:41;;;;;;;3.45;1.10;;;12.80;52.90;;;;;;6302137;22;20043;-66
2023/06/21 06:17:08;;;;;;;2.67;1.10;;;12.80;53.20;;;;;;6302992;22;20003;-67
2023/06/21 06:19:36;;;;;;;8.38;1.30;;;12.80;53.30;;;;;;6302159;22;20061;-67
2023/06/21 06:22:03;;;;;;;2.15;1.00;;;12.80;53.40;;;;;;6300294;22;20365;-67
2023/06/21 06:24:31;;;;;;;2.90;1.25;;;12.80;53.10;;;;;;6299978;22;20338;-67
2023/06/21 06:26:59;;;;;;;3.60;1.17;;;12.80;53.20;;;;;;6250221;22;20003;-66
2023/06/21 06:29:27;;;;;;;3.53;1.38;;;12.70;53.30;;;;;;6275607;22;20003;-66
2023/06/21 06:31:54;;;;;;;3.53;1.10;;;12.70;53.40;;;;;;6302459;22;19999;-67
2023/06/21 06:34:21;;;;;;;3.10;1.33;;;12.70;53.80;;;;;;6275631;22;20015;-66
2023/06/21 06:36:49;;;;;;;3.65;1.65;;;12.70;53.90;;;;;;6276019;22;19999;-66
2023/06/21 06:39:17;;;;;;;10.40;1.77;;;12.70;54.30;;;;;;6303480;22;20057;-66
2023/06/21 06:41:44;;;;;;;15.70;2.20;;;12.70;54.60;;;;;;6302622;22;20009;-66
2023/06/21 06:44:11;;;;;;;7.10;1.50;;;12.70;55.20;;;;;;6302808;22;20085;-66
2023/06/21 06:46:39;;;;;;;7.05;1.92;;;12.70;54.90;;;;;;6302302;22;20239;-69
2023/06/21 06:49:06;;;;;;;9.63;2.20;;;12.70;56.70;;;;;;6302707;22;20036;-68
2023/06/21 06:51:34;;;;;;;4.85;1.60;;;12.80;59.50;;;;;;6275771;22;20181;-67
2023/06/21 06:54:02;;;;;;;10.82;1.63;;;12.80;60.40;;;;;;6275160;22;20011;-67
2023/06/21 06:56:30;;;;;;;4.65;1.20;;;12.80;61.00;;;;;;6301428;22;20002;-67
2023/06/21 06:58:57;;;;;;;6.20;1.45;;;12.90;61.70;;;;;;6301727;22;20069;-67
2023/06/21 07:01:27;;;;;;;4.72;1.63;;;12.90;62.10;;;;;;6250239;22;20086;-67
2023/06/21 07:03:56;;;;;;;4.95;1.88;;;12.80;62.30;;;;;;6302736;22;20010;-67
2023/06/21 07:06:24;;;;;;;4.30;1.55;;;12.80;62.90;;;;;;6300698;22;20031;-66
2023/06/21 07:08:52;;;;;;;8.00;1.60;;;12.80;63.50;;;;;;6301221;22;20007;-67
2023/06/21 07:11:19;;;;;;;4.50;1.83;;;12.80;64.10;;;;;;6302020;22;20003;-67
2023/06/21 07:13:46;;;;;;;3.83;1.92;;;12.80;64.20;;;;;;6274891;22;20442;-67
2023/06/21 07:16:15;;;;;;;6.05;1.65;;;12.80;64.70;;;;;;6302657;22;20003;-67
2023/06/21 07:18:42;;;;;;;4.45;1.73;;;12.80;64.70;;;;;;6303013;22;19999;-68
2023/06/21 07:21:10;;;;;;;4.40;1.70;;;12.70;65.00;;;;;;6305268;22;20427;-68
2023/06/21 07:23:38;;;;;;;4.78;1.90;;;12.80;65.40;;;;;;6303573;22;20008;-67
2023/06/21 07:26:05;;;;;;;6.43;1.67;;;12.70;66.20;;;;;;6305981;22;19996;-67
2023/06/21 07:28:33;;;;;;;7.63;1.67;;;12.80;66.20;;;;;;6253954;22;20318;-67
2023/06/21 07:31:00;;;;;;;3.25;1.35;;;12.70;66.50;;;;;;6305799;22;20007;-68
2023/06/21 07:33:28;;;;;;;7.07;2.03;;;12.70;66.70;;;;;;6306045;22;20077;-68
2023/06/21 07:35:55;;;;;;;6.47;1.88;;;12.70;67.00;;;;;;6306176;22;20429;-67
2023/06/21 07:38:23;;;;;;;9.10;1.90;;;12.70;67.20;;;;;;6279192;22;20007;-68
2023/06/21 07:40:50;;;;;;;6.40;2.08;;;12.70;67.30;;;;;;6304612;22;20000;-68
2023/06/21 07:43:19;;;;;;;6.55;1.92;;;12.70;67.40;;;;;;6303821;22;20023;-68
2023/06/21 07:45:47;;;;;;;8.00;2.08;;;12.70;67.40;;;;;;6302786;22;20038;-68
2023/06/21 07:48:14;;;;;;;6.95;2.08;;;12.70;67.40;;;;;;6303517;22;20441;-69
2023/06/21 07:50:41;;;;;;;8.40;2.33;;;12.70;67.50;;;;;;6303334;22;20007;-69
2023/06/21 07:53:09;;;;;;;5.75;2.05;;;12.70;67.60;;;;;;6277774;22;20153;-68
2023/06/21 07:55:36;;;;;;;7.47;2.58;;;12.50;67.80;;;;;;6303885;22;20014;-67
2023/06/21 07:58:04;;;;;;;8.55;2.47;;;12.50;67.90;;;;;;6303746;22;20380;-70
2023/06/21 08:00:31;;;;;;;8.10;2.20;;;12.50;67.90;;;;;;6302703;22;20440;-70
2023/06/21 08:02:58;;;;;;;4.22;2.28;;;12.50;67.90;;;;;;6303561;22;20078;-70
2023/06/21 08:05:26;;;;;;;6.45;2.40;;;12.50;68.00;;;;;;6303817;22;20014;-69
2023/06/21 08:07:53;;;;;;;4.93;2.03;;;12.50;68.00;;;;;;6304177;22;19995;-67
2023/06/21 08:10:21;;;;;;;7.47;2.13;;;12.50;68.10;;;;;;6304459;22;20082;-68
2023/06/21 08:12:48;;;;;;;9.68;2.03;;;12.50;68.10;;;;;;6306098;22;20358;-67
2023/06/21 08:15:16;;;;;;;11.57;2.58;;;12.40;68.20;;;;;;6303947;22;20419;-68
2023/06/21 08:17:43;;;;;;;7.43;2.40;;;12.50;68.30;;;;;;6305476;22;20369;-66
2023/06/21 08:20:11;;;;;;;10.48;2.90;;;12.40;68.40;;;;;;6276124;22;20117;-66
2023/06/21 08:22:39;;;;;;;7.03;2.35;;;12.40;68.70;;;;;;6304242;22;20086;-68
2023/06/21 08:25:06;;;;;;;8.98;2.65;;;12.30;68.90;;;;;;6302235;22;20086;-68
2023/06/21 08:27:34;;;;;;;11.95;3.38;;;12.30;69.00;;;;;;6305256;22;20003;-67
2023/06/21 08:30:02;;;;;;;9.73;3.30;;;12.30;69.30;;;;;;6304982;22;20004;-69
2023/06/21 08:32:29;;;;;;;12.40;3.22;;;12.20;69.40;;;;;;6302537;22;20003;-68
2023/06/21 08:34:56;;;;;;;12.35;3.38;;;12.20;69.60;;;;;;6301891;22;20021;-66
2023/06/21 08:37:27;;;;;;;7.45;2.78;;;12.20;69.80;;;;;;6275716;22;20075;-66
2023/06/21 08:39:56;;;;;;;8.75;3.00;;;12.20;69.90;;;;;;6303245;22;20007;-67
2023/06/21 08:42:24;;;;;;;7.00;2.90;;;12.20;70.10;;;;;;6302384;22;20069;-67
2023/06/21 08:45:00;;;;;;;6.63;2.90;;;12.20;70.30;;;;;;6303106;22;20038;-70
2023/06/21 08:47:28;;;;;;;8.65;3.05;;;12.20;70.40;;;;;;6302016;22;20013;-69
2023/06/21 08:49:57;;;;;;;9.50;3.28;;;12.20;70.50;;;;;;6276258;22;20011;-68
2023/06/21 08:52:24;;;;;;;5.97;2.90;;;12.20;70.60;;;;;;6275538;22;20011;-68
2023/06/21 08:54:57;;;;;;;8.57;2.92;;;12.20;70.70;;;;;;6250154;22;20022;-69
2023/06/21 08:57:24;;;;;;;9.50;2.92;;;12.20;70.70;;;;;;6251092;22;20011;-67
2023/06/21 09:00:01;;;;;;;8.82;2.90;;;12.20;70.70;;;;;;6275453;22;20019;-67
2023/06/21 09:02:56;;;;;;;11.68;3.08;;;12.20;70.80;;;;;;6274876;22;20011;-67
2023/06/21 09:06:09;;;;;;;12.13;3.30;;;12.20;71.00;;;;;;6275447;22;20315;-69
2023/06/21 09:08:37;;;;;;;8.30;3.25;;;12.20;71.10;;;;;;6247778;22;20007;-67
2023/06/21 09:16:46;;;;;;;14.88;4.63;;;12.10;71.60;;;;;;6303578;22;20027;-67
2023/06/21 09:19:15;;;;;;;10.20;3.58;;;12.10;71.80;;;;;;6271674;22;20011;-67
2023/06/21 09:21:43;;;;;;;14.32;4.80;;;12.10;71.80;;;;;;6267533;22;20008;-66
2023/06/21 09:24:11;;;;;;;11.07;3.53;;;12.10;71.90;;;;;;6268289;22;19999;-66
2023/06/21 09:26:38;;;;;;;12.38;3.75;;;12.20;72.10;;;;;;6245210;22;20008;-66
2023/06/21 09:29:06;;;;;;;10.57;3.67;;;12.10;72.20;;;;;;6243572;22;20646;-67
2023/06/21 09:31:33;;;;;;;15.43;4.75;;;12.10;72.30;;;;;;6243473;22;20019;-66
2023/06/21 09:34:04;;;;;;;19.55;4.97;;;12.10;72.50;;;;;;6270623;22;20438;-66
2023/06/21 09:36:31;;;;;;;7.38;3.40;;;12.10;72.70;;;;;;6266158;22;20062;-67
2023/06/21 09:39:11;;;;;;;15.70;4.68;;;12.10;73.00;;;;;;6243514;22;20409;-67
2023/06/21 09:41:41;;;;;;;14.88;6.03;;;12.10;73.20;;;;;;6270029;22;20083;-67
2023/06/21 09:44:08;;;;;;;21.23;6.68;;;12.00;73.30;;;;;;6270248;22;20010;-65
2023/06/21 09:46:36;;;;;;;15.50;6.25;;;12.00;73.40;;;;;;6243899;22;20061;-66
2023/06/21 09:49:10;;;;;;;17.15;7.03;;;12.00;73.60;;;;;;6271585;22;20076;-66
2023/06/21 09:51:45;;;;;;;14.18;7.03;;;12.00;73.80;;;;;;6244894;22;20454;-67
2023/06/21 09:54:13;;;;;;;15.32;6.20;;;12.00;73.90;;;;;;6243248;22;20400;-67
2023/06/21 09:56:41;;;;;;;15.85;5.55;;;12.00;74.10;;;;;;6270682;22;20327;-66
2023/06/21 09:59:20;;;;;;;11.18;5.28;;;11.90;74.20;;;;;;6270122;22;20007;-67
2023/06/21 10:01:49;;;;;;;14.00;6.10;;;11.90;74.40;;;;;;6269441;22;20014;-66
2023/06/21 10:04:17;;;;;;;10.60;6.03;;;11.90;74.60;;;;;;6269344;22;20007;-66
2023/06/21 10:06:49;;;;;;;17.20;5.95;;;11.90;74.80;;;;;;6268727;22;20012;-66
2023/06/21 10:09:17;;;;;;;11.55;5.30;;;11.90;75.20;;;;;;6243193;22;20004;-67
2023/06/21 10:11:44;;;;;;;11.32;4.90;;;11.90;75.70;;;;;;6242012;22;20734;-66
2023/06/21 10:14:30;;;;;;;9.30;4.70;;;11.90;75.80;;;;;;6269349;22;20022;-66
2023/06/21 12:12:17;;;;;;;8.63;3.88;;;11.30;69.40;;;;;;6303918;22;20414;-65
2023/06/21 12:14:44;;;;;;;7.07;3.80;;;11.20;68.50;;;;;;6274523;22;20011;-64
2023/06/21 12:17:18;;;;;;;10.23;4.28;;;11.20;68.50;;;;;;6299308;22;20460;-67
2023/06/21 12:19:46;;;;;;;10.98;3.90;;;11.20;68.20;;;;;;6301619;22;20007;-68
2023/06/21 12:22:14;;;;;;;12.88;4.00;;;11.20;68.10;;;;;;6273219;22;20053;-65
2023/06/21 12:24:41;;;;;;;10.13;4.50;;;11.20;68.60;;;;;;6297742;22;20004;-68
2023/06/21 12:27:14;;;;;;;8.95;4.55;;;11.20;68.90;;;;;;6299365;22;20570;-68
2023/06/21 12:29:49;;;;;;;10.32;4.00;;;11.20;68.70;;;;;;6300060;22;19999;-68
2023/06/21 12:32:17;;;;;;;8.48;4.00;;;11.20;68.80;;;;;;6272175;22;20061;-68
2023/06/21 12:34:45;;;;;;;12.85;4.80;;;11.20;68.80;;;;;;6273383;22;20025;-66
2023/06/21 12:37:21;;;;;;;11.77;4.28;;;11.20;68.80;;;;;;6301022;22;19999;-68
2023/06/21 12:39:53;;;;;;;13.60;4.00;;;11.20;68.50;;;;;;6301119;22;20511;-68
2023/06/21 12:42:21;;;;;;;12.07;4.22;;;11.20;68.40;;;;;;6273682;22;20034;-68
2023/06/21 12:44:48;;;;;;;15.80;4.43;;;11.20;67.60;;;;;;6301891;22;20015;-67
2023/06/21 12:47:16;;;;;;;8.80;4.40;;;11.20;67.50;;;;;;6302565;22;20004;-67
2023/06/21 12:49:48;;;;;;;13.57;4.50;;;11.20;67.30;;;;;;6274794;22;20003;-67
2023/06/21 12:52:15;;;;;;;8.75;4.22;;;11.20;67.30;;;;;;6302562;22;20007;-66
2023/06/21 12:54:58;;;;;;;7.85;4.05;;;11.20;67.40;;;;;;6302337;22;20015;-65
2023/06/21 12:57:31;;;;;;;12.77;5.03;;;11.20;67.50;;;;;;6272716;22;20000;-66
2023/06/21 12:59:59;;;;;;;14.88;5.00;;;11.20;67.00;;;;;;6301788;22;20308;-67
2023/06/21 13:02:29;;;;;;;13.20;4.88;;;11.20;67.10;;;;;;6276909;22;20015;-66
2023/06/21 13:04:57;;;;;;;10.43;4.50;;;11.20;67.10;;;;;;6305781;22;20079;-66
2023/06/21 13:07:25;;;;;;;8.13;4.82;;;11.20;66.90;;;;;;6305191;22;20383;-67
2023/06/21 15:20:59;;;;;;;11.45;5.65;;;10.80;67.70;;;;;;6301635;22;20029;-67
2023/06/21 15:23:28;;;;;;;13.48;5.80;;;10.80;67.70;;;;;;6305279;22;20015;-67
2023/06/21 15:25:55;;;;;;;11.57;5.72;;;10.70;67.60;;;;;;6305306;22;20050;-67
2023/06/21 15:28:23;;;;;;;9.55;5.10;;;10.70;67.80;;;;;;6305887;22;20003;-66
2023/06/21 15:30:51;;;;;;;12.23;6.13;;;10.70;68.10;;;;;;6278215;22;20009;-67
2023/06/21 15:33:19;;;;;;;14.25;5.85;;;10.70;68.30;;;;;;6252206;22;20014;-67
2023/06/21 15:35:46;;;;;;;13.65;5.40;;;10.70;68.50;;;;;;6305523;22;20011;-67
2023/06/21 15:38:14;;;;;;;13.35;5.47;;;10.70;68.70;;;;;;6305907;22;19996;-67
2023/06/21 15:40:41;;;;;;;14.95;5.80;;;10.70;68.70;;;;;;6306166;22;20052;-67
2023/06/21 15:43:08;;;;;;;14.23;5.68;;;10.70;68.80;;;;;;6307689;22;20007;-67
2023/06/21 15:45:36;;;;;;;9.48;5.40;;;10.60;69.40;;;;;;6307323;22;20022;-67
2023/06/21 15:48:04;;;;;;;11.68;6.18;;;10.50;69.10;;;;;;6307564;22;20006;-67
2023/06/21 15:50:31;;;;;;;13.93;5.75;;;10.60;69.00;;;;;;6307291;22;20005;-67
2023/06/21 15:52:59;;;;;;;14.02;5.90;;;10.60;69.30;;;;;;6279629;22;20011;-67
2023/06/21 15:55:26;;;;;;;11.18;5.22;;;10.60;69.10;;;;;;6307287;22;20015;-67
2023/06/21 15:57:53;;;;;;;15.52;5.18;;;10.60;68.80;;;;;;6307800;22;19995;-67
2023/06/21 16:00:21;;;;;;;14.13;4.85;;;10.60;68.90;;;;;;6307964;22;20007;-67
2023/06/21 16:02:49;;;;;;;9.85;4.90;;;10.50;69.30;;;;;;6307471;22;20007;-67
2023/06/21 16:05:16;;;;;;;15.13;5.28;;;10.50;68.90;;;;;;6308072;22;20011;-67
2023/06/21 16:07:44;;;;;;;11.07;5.22;;;10.50;69.40;;;;;;6280413;22;20007;-67
2023/06/21 16:10:11;;;;;;;9.65;4.38;;;10.50;69.40;;;;;;6305638;22;20003;-67
2023/06/21 16:12:38;;;;;;;14.95;4.88;;;10.40;69.30;;;;;;6306060;22;20004;-66
2023/06/21 16:15:07;;;;;;;14.63;5.57;;;10.40;69.40;;;;;;6279366;22;20443;-67
2023/06/21 16:17:34;;;;;;;14.10;5.50;;;10.40;69.30;;;;;;6307083;22;20003;-67
2023/06/21 21:46:45;;;;;;;13.73;3.72;;;9.20;76.10;;;;;;6304765;22;20026;-66
2023/06/21 21:49:13;;;;;;;12.77;3.38;;;9.20;76.50;;;;;;6306363;22;20383;-66
2023/06/21 21:51:40;;;;;;;12.25;3.08;;;9.30;76.70;;;;;;6305422;22;20322;-66
2023/06/21 21:54:08;;;;;;;15.48;3.42;;;9.20;76.70;;;;;;6306106;22;20405;-66
2023/06/21 21:56:35;;;;;;;14.20;3.42;;;9.20;77.10;;;;;;6305991;22;20018;-67
2023/06/21 21:59:02;;;;;;;9.73;2.72;;;9.20;76.90;;;;;;6279525;22;19995;-66
2023/06/21 22:01:31;;;;;;;10.13;3.20;;;9.20;76.90;;;;;;6306788;22;20004;-66
2023/06/21 22:03:58;;;;;;;11.80;3.40;;;9.20;77.00;;;;;;6306430;22;20003;-67
2023/06/21 22:06:25;;;;;;;10.48;3.03;;;9.30;77.10;;;;;;6305754;22;20062;-67
2023/06/21 22:08:53;;;;;;;9.00;3.40;;;9.30;77.00;;;;;;6306351;22;20010;-67
2023/06/21 22:11:21;;;;;;;13.05;2.83;;;9.40;76.80;;;;;;6304648;22;19991;-66
2023/06/21 22:13:48;;;;;;;11.45;3.40;;;9.40;76.90;;;;;;6306348;22;20030;-66
2023/06/21 22:16:17;;;;;;;13.52;3.03;;;9.40;76.60;;;;;;6306603;22;20003;-67
2023/06/21 22:18:44;;;;;;;8.40;2.92;;;9.50;76.30;;;;;;6306205;22;20012;-67
2023/06/21 22:21:12;;;;;;;16.10;2.92;;;9.50;76.50;;;;;;6279429;22;20445;-67
2023/06/21 22:23:40;;;;;;;5.70;2.63;;;9.60;76.20;;;;;;6306527;22;20052;-66
2023/06/21 22:26:08;;;;;;;7.53;3.00;;;9.60;76.10;;;;;;6279334;22;19999;-67
2023/06/21 22:28:37;;;;;;;6.13;2.33;;;9.70;76.10;;;;;;6279489;22;20303;-67
2023/06/21 22:31:05;;;;;;;6.45;2.80;;;9.70;75.70;;;;;;6306256;22;20444;-67
2023/06/21 22:33:32;;;;;;;6.53;2.83;;;9.70;75.30;;;;;;6306457;22;20021;-67